createdAt,value
2023-02-08T00:00:53.721Z,-5.08
2023-02-08T00:03:20.538Z,-5.10
2023-02-08T00:05:47.302Z,-4.32
2023-02-08T00:08:14.166Z,-4.67
2023-02-08T00:10:41.262Z,-4.27
2023-02-08T00:13:08.587Z,-4.49
2023-02-08T00:15:35.552Z,-4.40
2023-02-08T00:18:02.385Z,-4.60
2023-02-08T00:20:29.208Z,-5.13
2023-02-08T00:22:56.686Z,-4.81
2023-02-08T00:25:23.443Z,-4.74
2023-02-08T00:27:50.255Z,-5.03
2023-02-08T00:30:17.061Z,-5.27
2023-02-08T00:32:43.772Z,-4.89
2023-02-08T00:35:11.801Z,-4.75
2023-02-08T00:37:38.545Z,-4.72
2023-02-08T00:40:05.959Z,-4.87
2023-02-08T00:42:33.222Z,-4.61
2023-02-08T00:44:59.974Z,-4.84
2023-02-08T00:47:26.852Z,-4.73
2023-02-08T00:49:53.910Z,-4.74
2023-02-08T00:52:20.682Z,-4.96
2023-02-08T00:54:47.792Z,-4.88
2023-02-08T00:57:15.405Z,-5.04
2023-02-08T00:59:42.418Z,-4.60
2023-02-08T01:02:09.604Z,-4.47
2023-02-08T01:04:37.032Z,-5.01
2023-02-08T01:07:04.514Z,-4.68
2023-02-08T01:09:31.673Z,-4.79
2023-02-08T01:11:58.467Z,-4.82
2023-02-08T01:14:26.007Z,-5.03
2023-02-08T01:16:53.319Z,-4.96
2023-02-08T01:19:20.281Z,-6.22
2023-02-08T01:21:49.143Z,-5.00
2023-02-08T01:24:16.563Z,-5.12
2023-02-08T01:26:43.559Z,-5.20
2023-02-08T01:29:10.551Z,-5.21
2023-02-08T01:31:42.117Z,-5.18
2023-02-08T01:34:09.637Z,-5.13
2023-02-08T01:36:37.681Z,-5.70
2023-02-08T01:39:06.537Z,-5.08
2023-02-08T01:41:36.956Z,-5.30
2023-02-08T01:44:06.533Z,-4.84
2023-02-08T01:46:45.170Z,-4.99
2023-02-08T01:49:36.069Z,-5.44
2023-02-08T01:52:14.448Z,-5.03
2023-02-08T01:54:58.898Z,-5.84
2023-02-08T01:57:28.655Z,-5.10
2023-02-08T02:00:08.550Z,-5.41
2023-02-08T02:02:42.558Z,-4.72
2023-02-08T02:05:09.859Z,-5.10
2023-02-08T02:07:37.203Z,-4.79
2023-02-08T02:10:07.200Z,-4.74
2023-02-08T02:12:35.656Z,-4.75
2023-02-08T02:15:03.097Z,-4.76
2023-02-08T02:17:30.319Z,-5.56
2023-02-08T02:20:18.913Z,-4.98
2023-02-08T02:23:31.564Z,-5.17
2023-02-08T02:26:22.970Z,-4.61
2023-02-08T02:29:04.825Z,-4.54
2023-02-08T02:31:52.952Z,-4.41
2023-02-08T02:34:52.777Z,-4.52
2023-02-08T02:37:49.187Z,-4.31
2023-02-08T02:40:25.498Z,-4.34
2023-02-08T02:43:32.868Z,-5.00
2023-02-08T02:46:08.072Z,-5.04
2023-02-08T02:48:42.150Z,-4.34
2023-02-08T02:51:25.017Z,-5.09
2023-02-08T02:54:05.119Z,-4.40
2023-02-08T02:56:39.741Z,-4.19
2023-02-08T02:59:08.751Z,-6.08
2023-02-08T03:01:36.503Z,-4.21
2023-02-08T03:04:33.929Z,-4.14
2023-02-08T03:07:18.680Z,-4.14
2023-02-08T03:10:15.486Z,-5.09
2023-02-08T03:12:54.349Z,-4.31
2023-02-08T03:15:40.038Z,-4.60
2023-02-08T03:18:37.004Z,-4.33
2023-02-08T03:21:12.301Z,-4.34
2023-02-08T03:23:45.145Z,-5.21
2023-02-08T03:26:23.104Z,-4.20
2023-02-08T03:29:09.535Z,-4.14
2023-02-08T03:31:59.682Z,-4.14
2023-02-08T03:34:39.697Z,-4.83
2023-02-08T03:37:18.796Z,-4.23
2023-02-08T03:39:48.596Z,-4.26
2023-02-08T03:42:19.190Z,-4.44
2023-02-08T03:45:00.364Z,-4.18
2023-02-08T03:47:32.678Z,-5.03
2023-02-08T03:50:05.259Z,-4.26
2023-02-08T03:52:33.353Z,-5.31
2023-02-08T03:55:23.282Z,-5.73
2023-02-08T03:57:54.805Z,-4.29
2023-02-08T04:00:22.581Z,-4.30
2023-02-08T04:02:59.498Z,-5.07
2023-02-08T04:05:26.479Z,-4.31
2023-02-08T04:07:53.647Z,-4.49
2023-02-08T04:10:20.493Z,-4.37
2023-02-08T04:12:48.966Z,-4.42
2023-02-08T04:15:16.567Z,-5.63
2023-02-08T04:17:43.538Z,-5.05
2023-02-08T04:20:10.795Z,-6.15
2023-02-08T04:22:37.546Z,-5.41
2023-02-08T04:25:05.040Z,-4.77
2023-02-08T04:27:32.191Z,-5.24
2023-02-08T04:29:58.919Z,-4.72
2023-02-08T04:32:25.748Z,-4.92
2023-02-08T04:34:52.639Z,-4.75
2023-02-08T04:37:19.434Z,-4.79
2023-02-08T04:39:46.252Z,-4.74
2023-02-08T04:42:13.060Z,-4.91
2023-02-08T04:44:39.774Z,-4.84
2023-02-08T04:47:06.507Z,-5.73
2023-02-08T04:49:33.246Z,-4.89
2023-02-08T04:52:00.173Z,-4.97
2023-02-08T04:54:27.190Z,-4.99
2023-02-08T04:56:53.972Z,-4.92
2023-02-08T04:59:20.783Z,-5.68
2023-02-08T05:01:47.576Z,-4.98
2023-02-08T05:04:14.448Z,-5.37
2023-02-08T05:06:41.246Z,-5.01
2023-02-08T05:09:09.814Z,-4.83
2023-02-08T05:11:37.425Z,-4.80
2023-02-08T05:14:04.298Z,-6.56
2023-02-08T05:16:31.547Z,-5.06
2023-02-08T05:18:58.762Z,-4.70
2023-02-08T05:21:25.500Z,-5.64
2023-02-08T05:23:52.260Z,-5.02
2023-02-08T05:26:19.486Z,-7.40
2023-02-08T05:28:46.322Z,-5.57
2023-02-08T05:31:17.358Z,-4.81
2023-02-08T05:33:44.274Z,-5.80
2023-02-08T05:36:11.096Z,-4.77
2023-02-08T05:38:37.954Z,-4.81
2023-02-08T05:41:04.902Z,-4.92
2023-02-08T05:43:31.654Z,-5.25
2023-02-08T05:45:58.501Z,-5.04
2023-02-08T05:48:25.298Z,-5.28
2023-02-08T05:50:52.049Z,-5.16
2023-02-08T05:53:19.196Z,-5.09
2023-02-08T05:55:48.748Z,-6.12
2023-02-08T05:58:16.226Z,-5.76
2023-02-08T06:00:43.623Z,-5.19
2023-02-08T06:03:11.313Z,-5.45
2023-02-08T06:05:40.089Z,-6.27
2023-02-08T06:08:07.479Z,-6.37
2023-02-08T06:10:34.729Z,-5.12
2023-02-08T06:13:01.735Z,-5.13
2023-02-08T06:15:28.696Z,-6.30
2023-02-08T06:17:56.785Z,-5.40
2023-02-08T06:20:23.691Z,-5.35
2023-02-08T06:22:50.614Z,-5.21
2023-02-08T06:25:17.634Z,-5.06
2023-02-08T06:27:44.517Z,-5.28
2023-02-08T06:30:12.056Z,-6.16
2023-02-08T06:32:39.062Z,-5.44
2023-02-08T06:35:06.212Z,-6.72
2023-02-08T06:37:33.231Z,-5.22
2023-02-08T06:40:02.072Z,-5.09
2023-02-08T06:42:29.134Z,-5.39
2023-02-08T06:44:57.994Z,-6.05
2023-02-08T06:47:31.191Z,-6.80
2023-02-08T06:49:58.659Z,-5.33
2023-02-08T06:52:25.536Z,-6.53
2023-02-08T06:54:52.246Z,-5.39
2023-02-08T06:57:19.059Z,-5.34
2023-02-08T06:59:46.359Z,-5.24
2023-02-08T07:02:16.122Z,-5.86
2023-02-08T07:04:43.724Z,-5.53
2023-02-08T07:07:12.362Z,-5.87
2023-02-08T07:09:39.240Z,-5.55
2023-02-08T07:12:06.380Z,-5.41
2023-02-08T07:14:34.720Z,-5.33
2023-02-08T07:17:02.897Z,-5.74
2023-02-08T07:19:30.034Z,-5.35
2023-02-08T07:21:57.262Z,-5.22
2023-02-08T07:24:24.415Z,-5.72
2023-02-08T07:26:51.190Z,-5.52
2023-02-08T07:29:17.907Z,-5.23
2023-02-08T07:31:44.665Z,-6.00
2023-02-08T07:34:11.565Z,-5.20
2023-02-08T07:36:38.614Z,-4.81
2023-02-08T07:39:06.309Z,-4.87
2023-02-08T07:41:33.170Z,-4.62
2023-02-08T07:44:00.237Z,-4.79
2023-02-08T07:46:27.052Z,-4.37
2023-02-08T07:48:53.933Z,-4.61
2023-02-08T07:51:20.833Z,-5.32
2023-02-08T07:53:47.601Z,-4.12
2023-02-08T07:56:14.426Z,-4.84
2023-02-08T07:58:41.284Z,-4.72
2023-02-08T08:01:23.485Z,-5.06
2023-02-08T08:03:51.934Z,-4.85
2023-02-08T08:06:22.807Z,-3.70
2023-02-08T08:08:50.154Z,-3.55
2023-02-08T08:11:18.733Z,-3.64
2023-02-08T08:13:45.678Z,-4.15
2023-02-08T08:16:12.825Z,-4.53
2023-02-08T08:18:39.937Z,-3.30
2023-02-08T08:21:07.405Z,-3.13
2023-02-08T08:23:36.210Z,-3.28
2023-02-08T08:26:13.826Z,-2.80
2023-02-08T08:28:42.458Z,-3.09
2023-02-08T08:31:12.774Z,-3.82
2023-02-08T08:33:39.904Z,-2.43
2023-02-08T08:36:08.041Z,-2.29
2023-02-08T08:38:35.304Z,-3.13
2023-02-08T08:41:02.122Z,-2.69
2023-02-08T08:43:28.955Z,-2.66
2023-02-08T08:45:55.787Z,-2.76
2023-02-08T08:48:22.721Z,-2.27
2023-02-08T08:50:50.411Z,-2.35
2023-02-08T08:53:17.617Z,-2.31
2023-02-08T08:55:45.695Z,-1.98
2023-02-08T08:58:12.600Z,-2.07
2023-02-08T09:00:39.847Z,-1.56
2023-02-08T09:03:06.911Z,-1.21
2023-02-08T09:05:35.091Z,-1.27
2023-02-08T09:08:03.536Z,-1.47
2023-02-08T09:10:30.986Z,-1.63
2023-02-08T09:12:58.987Z,-2.14
2023-02-08T09:15:25.835Z,-1.73
2023-02-08T09:17:52.582Z,-1.55
2023-02-08T09:20:19.716Z,-1.68
2023-02-08T09:22:46.537Z,-1.54
2023-02-08T09:25:16.315Z,-1.81
2023-02-08T09:27:43.236Z,-2.07
2023-02-08T09:30:10.753Z,-1.37
2023-02-08T09:32:40.462Z,-1.09
2023-02-08T09:35:08.391Z,-1.45
2023-02-08T09:37:35.201Z,-1.01
2023-02-08T09:40:02.195Z,-0.77
2023-02-08T09:42:28.938Z,-0.84
2023-02-08T09:45:25.332Z,-0.82
2023-02-08T09:48:17.332Z,-0.59
2023-02-08T09:50:52.889Z,-0.58
2023-02-08T09:53:34.315Z,-0.05
2023-02-08T09:56:12.717Z,-1.44
2023-02-08T09:58:54.619Z,-0.49
2023-02-08T10:01:24.467Z,-2.08
2023-02-08T10:04:06.264Z,-0.46
2023-02-08T10:06:33.247Z,-0.38
2023-02-08T10:09:04.422Z,-0.54
2023-02-08T10:11:47.200Z,-0.48
2023-02-08T10:14:32.250Z,0.45
2023-02-08T10:17:05.644Z,0.91
2023-02-08T10:19:50.699Z,1.14
2023-02-08T10:22:32.273Z,1.12
2023-02-08T10:25:18.945Z,0.94
2023-02-08T10:28:16.471Z,0.92
2023-02-08T10:31:12.799Z,0.55
2023-02-08T10:34:20.722Z,0.84
2023-02-08T10:36:47.506Z,1.12
2023-02-08T10:39:19.614Z,1.42
2023-02-08T10:41:47.414Z,0.91
2023-02-08T10:44:29.186Z,1.22
2023-02-08T10:47:44.011Z,2.28
2023-02-08T10:50:30.395Z,2.34
2023-02-08T10:52:57.577Z,2.13
2023-02-08T10:55:24.644Z,1.95
2023-02-08T10:57:55.788Z,2.56
2023-02-08T11:00:28.947Z,2.32
2023-02-08T11:03:05.432Z,1.92
2023-02-08T11:05:35.638Z,2.28
2023-02-08T11:08:10.270Z,2.29
2023-02-08T11:10:44.007Z,2.30
2023-02-08T11:13:14.002Z,2.90
2023-02-08T11:15:51.088Z,2.93
2023-02-08T11:18:30.612Z,2.55
2023-02-08T11:21:00.716Z,2.62
2023-02-08T11:23:33.475Z,3.45
2023-02-08T11:26:17.328Z,3.79
2023-02-08T11:28:45.140Z,3.58
2023-02-08T11:31:22.649Z,3.68
2023-02-08T11:34:01.405Z,3.95
2023-02-08T11:36:32.416Z,3.93
2023-02-08T11:39:03.206Z,3.62
2023-02-08T11:41:30.064Z,3.35
2023-02-08T11:44:05.623Z,3.71
2023-02-08T11:46:35.849Z,3.47
2023-02-08T11:49:03.668Z,4.03
2023-02-08T11:51:37.783Z,3.54
2023-02-08T11:54:05.744Z,4.07
2023-02-08T11:56:34.526Z,4.07
2023-02-08T11:59:03.860Z,3.51
2023-02-08T12:01:36.904Z,3.19
2023-02-08T12:04:07.854Z,3.62
2023-02-08T12:06:40.702Z,3.99
2023-02-08T12:09:21.876Z,4.25
2023-02-08T12:11:53.294Z,4.89
2023-02-08T12:14:38.313Z,4.49
2023-02-08T12:17:25.608Z,3.02
2023-02-08T12:20:17.596Z,4.47
2023-02-08T12:23:01.663Z,4.10
2023-02-08T12:25:52.444Z,4.10
2023-02-08T12:28:50.667Z,2.69
2023-02-08T12:31:43.088Z,3.18
2023-02-08T12:34:41.038Z,3.28
2023-02-08T12:37:41.313Z,2.95
2023-02-08T12:40:38.208Z,3.31
2023-02-08T12:43:13.947Z,3.95
2023-02-08T12:45:47.004Z,3.74
2023-02-08T12:48:29.045Z,4.71
2023-02-08T12:51:09.713Z,4.34
2023-02-08T12:53:49.105Z,4.27
2023-02-08T12:56:21.193Z,3.19
2023-02-08T12:58:55.036Z,4.11
2023-02-08T13:01:34.628Z,5.21
2023-02-08T13:04:09.290Z,4.71
2023-02-08T13:06:49.724Z,4.63
2023-02-08T13:09:36.057Z,5.66
2023-02-08T13:12:11.583Z,5.53
2023-02-08T13:14:45.690Z,5.55
2023-02-08T13:17:19.543Z,5.17
2023-02-08T13:20:11.507Z,5.55
2023-02-08T13:22:42.026Z,5.90
2023-02-08T13:25:27.913Z,6.66
2023-02-08T13:27:55.413Z,5.95
2023-02-08T13:30:22.848Z,5.73
2023-02-08T13:32:51.882Z,5.09
2023-02-08T13:35:27.105Z,5.33
2023-02-08T13:38:24.143Z,5.44
2023-02-08T13:41:03.977Z,4.80
2023-02-08T13:43:46.416Z,4.14
2023-02-08T13:46:14.076Z,3.61
2023-02-08T13:48:44.358Z,3.26
2023-02-08T13:51:29.117Z,2.45
2023-02-08T13:53:55.876Z,2.04
2023-02-08T13:56:55.227Z,1.48
2023-02-08T13:59:27.190Z,1.46
2023-02-08T14:02:12.210Z,1.48
2023-02-08T14:04:45.257Z,1.57
2023-02-08T14:07:12.030Z,1.53
2023-02-08T14:09:44.798Z,1.32
2023-02-08T14:12:37.174Z,0.99
2023-02-08T14:15:16.881Z,0.80
2023-02-08T14:17:47.028Z,1.05
2023-02-08T14:20:39.930Z,0.74
2023-02-08T14:23:27.495Z,0.92
2023-02-08T14:25:57.083Z,0.19
2023-02-08T14:28:35.530Z,0.88
2023-02-08T14:31:07.358Z,0.87
2023-02-08T14:33:49.678Z,0.73
2023-02-08T14:36:29.115Z,0.49
2023-02-08T14:39:30.629Z,0.57
2023-02-08T14:42:09.537Z,0.31
2023-02-08T14:44:39.284Z,0.59
2023-02-08T14:47:36.891Z,0.63
2023-02-08T14:50:17.762Z,0.26
2023-02-08T14:53:02.885Z,0.23
2023-02-08T14:55:34.186Z,-0.30
2023-02-08T14:58:02.775Z,0.28
2023-02-08T15:00:34.362Z,-0.10
2023-02-08T15:03:04.086Z,-0.81
2023-02-08T15:05:37.853Z,0.14
2023-02-08T15:08:04.887Z,-0.40
2023-02-08T15:10:33.226Z,-0.57
2023-02-08T15:13:06.368Z,0.04
2023-02-08T15:15:37.325Z,-0.80
2023-02-08T15:18:06.926Z,-0.79
2023-02-08T15:20:35.864Z,-0.54
2023-02-08T15:23:18.049Z,-0.01
2023-02-08T15:25:55.579Z,-0.01
2023-02-08T15:28:25.717Z,-1.26
2023-02-08T15:30:55.096Z,0.07
2023-02-08T15:33:22.238Z,-0.12
2023-02-08T15:35:58.327Z,-0.28
2023-02-08T15:38:25.839Z,0.06
2023-02-08T15:41:04.076Z,-0.53
2023-02-08T15:43:32.076Z,-0.62
2023-02-08T15:46:05.383Z,0.15
2023-02-08T15:48:33.675Z,-0.02
2023-02-08T15:51:01.554Z,-0.21
2023-02-08T15:53:29.491Z,-2.31
2023-02-08T15:56:01.457Z,-0.12
2023-02-08T15:58:41.664Z,-0.38
2023-02-08T16:01:14.978Z,-0.07
2023-02-08T16:03:47.703Z,-0.02
2023-02-08T16:06:14.444Z,-1.13
2023-02-08T16:08:43.969Z,-0.80
2023-02-08T16:11:22.043Z,-0.20
2023-02-08T16:13:51.759Z,-0.19
2023-02-08T16:16:23.516Z,-0.06
2023-02-08T16:18:58.626Z,-0.52
2023-02-08T16:21:25.415Z,0.02
2023-02-08T16:23:54.556Z,-0.80
2023-02-08T16:26:27.556Z,0.03
2023-02-08T16:28:57.514Z,-0.48
2023-02-08T16:31:28.387Z,0.30
2023-02-08T16:34:01.983Z,0.13
2023-02-08T16:36:34.807Z,0.21
2023-02-08T16:39:13.526Z,0.20
2023-02-08T16:42:06.506Z,0.19
2023-02-08T16:44:59.140Z,0.09
2023-02-08T16:47:51.102Z,-0.10
2023-02-08T16:50:25.979Z,0.15
2023-02-08T16:53:05.185Z,0.18
2023-02-08T16:55:33.982Z,0.26
2023-02-08T16:58:00.778Z,0.34
2023-02-08T17:00:33.314Z,0.04
2023-02-08T17:03:00.731Z,0.00
2023-02-08T17:05:35.726Z,-0.12
2023-02-08T17:08:06.856Z,0.04
2023-02-08T17:10:34.596Z,0.19
2023-02-08T17:13:18.705Z,0.22
2023-02-08T17:15:48.932Z,-0.62
2023-02-08T17:18:16.140Z,-0.44
2023-02-08T17:20:43.330Z,-0.01
2023-02-08T17:23:11.453Z,-0.64
2023-02-08T17:25:38.746Z,-0.18
2023-02-08T17:28:09.030Z,-0.37
2023-02-08T17:30:41.711Z,-0.20
2023-02-08T17:33:17.769Z,-1.97
2023-02-08T17:35:49.927Z,-0.56
2023-02-08T17:38:17.972Z,-0.41
2023-02-08T17:40:45.633Z,-0.20
2023-02-08T17:43:12.999Z,-1.61
2023-02-08T17:45:41.729Z,-0.38
2023-02-08T17:48:09.115Z,-0.15
2023-02-08T17:50:36.500Z,-0.11
2023-02-08T17:53:04.196Z,-0.10
2023-02-08T17:55:31.649Z,-0.10
2023-02-08T17:58:01.605Z,-0.15
2023-02-08T18:00:28.657Z,-0.31
2023-02-08T18:02:56.143Z,-1.32
2023-02-08T18:05:26.389Z,-2.07
2023-02-08T18:07:55.355Z,-1.38
2023-02-08T18:10:24.488Z,-1.45
2023-02-08T18:12:51.414Z,-0.78
2023-02-08T18:15:21.789Z,-0.76
2023-02-08T18:17:50.545Z,-0.62
2023-02-08T18:20:18.591Z,-0.69
2023-02-08T18:23:01.462Z,-0.73
2023-02-08T18:25:28.885Z,-1.09
2023-02-08T18:27:56.465Z,-0.85
2023-02-08T18:30:25.539Z,-0.93
2023-02-08T18:32:53.078Z,-1.56
2023-02-08T18:35:20.291Z,-0.92
2023-02-08T18:37:49.520Z,-1.02
2023-02-08T18:40:20.134Z,-1.20
2023-02-08T18:42:46.935Z,-0.99
2023-02-08T18:45:13.762Z,-1.14
2023-02-08T18:47:40.612Z,-1.52
2023-02-08T18:50:09.161Z,-1.50
2023-02-08T18:52:36.055Z,-0.98
2023-02-08T18:55:03.976Z,-0.87
2023-02-08T18:57:30.870Z,-0.87
2023-02-08T19:00:00.375Z,-0.77
2023-02-08T19:02:27.317Z,-0.97
2023-02-08T19:04:54.326Z,-0.76
2023-02-08T19:07:21.092Z,-0.73
2023-02-08T19:09:48.956Z,-0.77
2023-02-08T19:12:15.910Z,-0.85
2023-02-08T19:14:43.371Z,-0.73
2023-02-08T19:17:11.470Z,-1.56
2023-02-08T19:19:39.841Z,-0.87
2023-02-08T19:22:06.675Z,-0.89
2023-02-08T19:24:33.532Z,-1.62
2023-02-08T19:27:00.434Z,-1.03
2023-02-08T19:29:27.283Z,-2.15
2023-02-08T19:31:55.433Z,-0.99
2023-02-08T19:34:23.266Z,-0.96
2023-02-08T19:36:53.108Z,-1.28
2023-02-08T19:39:25.400Z,-1.16
2023-02-08T19:41:53.773Z,-1.09
2023-02-08T19:44:21.373Z,-1.17
2023-02-08T19:46:50.547Z,-1.07
2023-02-08T19:49:18.103Z,-1.19
2023-02-08T19:51:48.284Z,-1.40
2023-02-08T19:54:17.671Z,-1.04
2023-02-08T19:56:45.543Z,-1.04
2023-02-08T19:59:20.021Z,-1.11
2023-02-08T20:01:47.488Z,-1.62
2023-02-08T20:04:14.920Z,-1.37
2023-02-08T20:06:42.872Z,-1.16
2023-02-08T20:09:09.719Z,-1.69
2023-02-08T20:11:47.940Z,-1.25
2023-02-08T20:14:23.245Z,-1.65
2023-02-08T20:16:50.131Z,-1.31
2023-02-08T20:19:17.085Z,-1.39
2023-02-08T20:21:45.325Z,-1.21
2023-02-08T20:24:13.145Z,-1.71
2023-02-08T20:26:43.340Z,-1.31
2023-02-08T20:29:10.776Z,-1.31
2023-02-08T20:31:40.648Z,-1.75
2023-02-08T20:34:09.596Z,-1.48
2023-02-08T20:36:45.026Z,-1.02
2023-02-08T20:39:17.898Z,-1.86
2023-02-08T20:41:44.967Z,-1.16
2023-02-08T20:44:12.840Z,-1.15
2023-02-08T20:46:39.789Z,-0.86
2023-02-08T20:49:07.895Z,-1.39
2023-02-08T20:51:35.698Z,-1.75
2023-02-08T20:54:04.139Z,-1.38
2023-02-08T20:56:34.632Z,-0.94
2023-02-08T20:59:02.175Z,-0.95
2023-02-08T21:01:30.900Z,-0.91
2023-02-08T21:03:58.738Z,-0.95
2023-02-08T21:06:29.460Z,-0.91
2023-02-08T21:08:57.957Z,-1.22
2023-02-08T21:11:27.588Z,-0.93
2023-02-08T21:13:55.321Z,-0.94
2023-02-08T21:16:22.690Z,-1.93
2023-02-08T21:18:50.177Z,-1.60
2023-02-08T21:21:17.626Z,-0.97
2023-02-08T21:23:44.942Z,-1.32
2023-02-08T21:26:15.187Z,-0.84
2023-02-08T21:28:43.222Z,-0.95
2023-02-08T21:31:22.455Z,-1.16
2023-02-08T21:33:49.816Z,-0.98
2023-02-08T21:36:19.822Z,-2.03
2023-02-08T21:38:46.489Z,-1.61
2023-02-08T21:41:16.010Z,-0.99
2023-02-08T21:43:42.997Z,-0.96
2023-02-08T21:46:10.203Z,-1.22
2023-02-08T21:48:55.879Z,-1.33
2023-02-08T21:51:43.250Z,-1.03
2023-02-08T21:54:35.110Z,-1.97
2023-02-08T21:57:04.415Z,-1.61
2023-02-08T21:59:35.257Z,-1.17
2023-02-08T22:02:02.755Z,-1.06
2023-02-08T22:04:29.533Z,-1.12
2023-02-08T22:06:56.381Z,-2.01
2023-02-08T22:09:23.153Z,-1.49
2023-02-08T22:11:50.266Z,-1.61
2023-02-08T22:14:17.294Z,-1.43
2023-02-08T22:16:44.262Z,-1.31
2023-02-08T22:19:11.097Z,-1.82
2023-02-08T22:21:37.860Z,-2.12
2023-02-08T22:24:06.263Z,-2.41
2023-02-08T22:26:33.619Z,-2.37
2023-02-08T22:29:01.368Z,-1.61
2023-02-08T22:31:28.169Z,-1.72
2023-02-08T22:33:55.259Z,-1.15
2023-02-08T22:36:22.108Z,-2.46
2023-02-08T22:38:48.967Z,-2.42
2023-02-08T22:41:17.136Z,-2.23
2023-02-08T22:43:44.834Z,-1.72
2023-02-08T22:46:12.394Z,-1.55
2023-02-08T22:48:39.419Z,-2.67
2023-02-08T22:51:12.728Z,-1.31
2023-02-08T22:53:39.635Z,-1.95
2023-02-08T22:56:06.811Z,-1.97
2023-02-08T22:58:33.890Z,-1.80
2023-02-08T23:01:00.803Z,-1.55
2023-02-08T23:03:28.013Z,-1.54
2023-02-08T23:05:54.776Z,-2.22
2023-02-08T23:08:22.464Z,-1.73
2023-02-08T23:10:49.757Z,-1.93
2023-02-08T23:13:16.853Z,-2.42
2023-02-08T23:15:44.489Z,-1.72
2023-02-08T23:18:11.802Z,-2.25
2023-02-08T23:20:41.010Z,-1.94
2023-02-08T23:23:08.435Z,-1.74
2023-02-08T23:25:38.398Z,-1.64
2023-02-08T23:28:05.792Z,-1.59
2023-02-08T23:30:32.562Z,-1.91
2023-02-08T23:32:59.462Z,-1.69
2023-02-08T23:35:26.445Z,-2.67
2023-02-08T23:37:53.306Z,-1.53
2023-02-08T23:40:20.088Z,-2.21
2023-02-08T23:42:46.764Z,-1.46
2023-02-08T23:45:13.971Z,-1.74
2023-02-08T23:47:40.705Z,-1.33
2023-02-08T23:50:08.172Z,-1.26
2023-02-08T23:52:36.020Z,-1.81
2023-02-08T23:55:04.492Z,-1.75
2023-02-08T23:57:36.479Z,-2.21
